createdAt,value
2023-05-09T00:00:33.786Z,48.42
2023-05-09T00:03:02.569Z,48.56
2023-05-09T00:05:30.032Z,48.76
2023-05-09T00:07:57.175Z,49.13
2023-05-09T00:10:27.409Z,49.27
2023-05-09T00:12:54.587Z,49.15
2023-05-09T00:15:21.702Z,49.35
2023-05-09T00:17:48.898Z,49.79
2023-05-09T00:20:16.010Z,50.01
2023-05-09T00:22:43.159Z,50.08
2023-05-09T00:25:10.924Z,49.83
2023-05-09T00:27:38.212Z,49.84
2023-05-09T00:30:06.886Z,50.06
2023-05-09T00:32:34.456Z,50.18
2023-05-09T00:35:01.603Z,50.20
2023-05-09T00:37:30.785Z,50.69
2023-05-09T00:39:58.026Z,50.64
2023-05-09T00:42:25.284Z,50.71
2023-05-09T00:44:52.839Z,51.02
2023-05-09T00:47:21.251Z,50.75
2023-05-09T00:49:48.778Z,50.91
2023-05-09T00:52:16.132Z,51.07
2023-05-09T00:54:43.489Z,51.35
2023-05-09T00:57:10.639Z,51.32
2023-05-09T00:59:37.788Z,51.29
2023-05-09T01:02:04.942Z,51.18
2023-05-09T01:04:32.605Z,51.23
2023-05-09T01:07:06.521Z,51.33
2023-05-09T01:10:11.764Z,51.30
2023-05-09T01:12:52.161Z,51.07
2023-05-09T01:15:34.694Z,51.08
2023-05-09T01:18:13.516Z,50.87
2023-05-09T01:20:46.991Z,51.38
2023-05-09T01:23:44.270Z,51.39
2023-05-09T01:26:18.228Z,51.20
2023-05-09T01:28:52.134Z,50.95
2023-05-09T01:31:19.318Z,50.75
2023-05-09T01:33:51.350Z,50.72
2023-05-09T01:36:18.713Z,50.31
2023-05-09T01:38:46.370Z,50.17
2023-05-09T01:41:13.520Z,49.94
2023-05-09T01:43:40.720Z,49.39
2023-05-09T01:46:08.035Z,49.86
2023-05-09T01:48:36.402Z,49.85
2023-05-09T01:51:03.760Z,49.50
2023-05-09T01:53:30.919Z,49.54
2023-05-09T01:55:59.638Z,49.94
2023-05-09T01:58:26.955Z,49.80
2023-05-09T02:00:54.232Z,49.84
2023-05-09T02:03:22.339Z,49.78
2023-05-09T02:05:49.556Z,50.14
2023-05-09T02:08:17.092Z,50.28
2023-05-09T02:10:44.247Z,49.85
2023-05-09T02:13:11.433Z,49.95
2023-05-09T02:15:40.450Z,50.13
2023-05-09T02:18:07.609Z,49.93
2023-05-09T02:20:37.665Z,50.34
2023-05-09T02:23:04.821Z,50.20
2023-05-09T02:25:33.319Z,50.08
2023-05-09T02:28:00.652Z,50.02
2023-05-09T02:30:28.118Z,50.19
2023-05-09T02:33:01.852Z,50.12
2023-05-09T02:35:29.065Z,49.87
2023-05-09T02:37:58.702Z,49.76
2023-05-09T02:40:27.271Z,49.60
2023-05-09T02:42:54.418Z,49.79
2023-05-09T02:45:22.076Z,50.03
2023-05-09T02:47:49.310Z,50.02
2023-05-09T02:50:16.581Z,49.76
2023-05-09T02:52:44.251Z,49.84
2023-05-09T02:55:11.629Z,49.80
2023-05-09T02:57:40.186Z,50.17
2023-05-09T03:00:09.878Z,49.86
2023-05-09T03:02:37.508Z,49.85
2023-05-09T03:05:06.554Z,49.88
2023-05-09T03:07:34.627Z,50.09
2023-05-09T03:10:02.089Z,50.03
2023-05-09T03:12:31.190Z,50.21
2023-05-09T03:14:58.340Z,50.26
2023-05-09T03:17:26.013Z,49.83
2023-05-09T03:19:53.364Z,50.22
2023-05-09T03:22:20.823Z,50.20
2023-05-09T03:25:00.870Z,50.22
2023-05-09T03:27:28.127Z,49.78
2023-05-09T03:29:55.785Z,49.90
2023-05-09T03:32:22.961Z,49.63
2023-05-09T03:34:51.421Z,49.45
2023-05-09T03:37:18.776Z,49.52
2023-05-09T03:39:46.132Z,49.69
2023-05-09T03:42:13.627Z,50.09
2023-05-09T03:44:41.255Z,50.29
2023-05-09T03:47:08.405Z,50.32
2023-05-09T03:49:38.560Z,49.81
2023-05-09T03:52:06.091Z,49.72
2023-05-09T03:54:33.546Z,50.24
2023-05-09T03:57:01.418Z,49.94
2023-05-09T03:59:28.786Z,49.74
2023-05-09T04:01:56.367Z,49.54
2023-05-09T04:04:25.225Z,49.73
2023-05-09T04:06:53.306Z,49.37
2023-05-09T04:09:20.554Z,49.23
2023-05-09T04:11:47.911Z,49.05
2023-05-09T04:14:15.672Z,49.52
2023-05-09T04:16:42.868Z,49.52
2023-05-09T04:19:10.393Z,49.65
2023-05-09T04:21:38.379Z,49.04
2023-05-09T04:24:06.739Z,49.06
2023-05-09T04:26:39.335Z,48.45
2023-05-09T04:29:09.034Z,48.47
2023-05-09T04:31:36.671Z,48.67
2023-05-09T04:34:04.566Z,48.82
2023-05-09T04:36:34.196Z,48.12
2023-05-09T04:39:01.326Z,47.98
2023-05-09T04:41:29.089Z,48.09
2023-05-09T04:43:56.648Z,48.28
2023-05-09T04:46:26.149Z,48.43
2023-05-09T04:48:53.817Z,48.21
2023-05-09T04:51:21.072Z,48.06
2023-05-09T04:53:48.235Z,47.68
2023-05-09T04:56:16.511Z,46.97
2023-05-09T04:58:44.418Z,47.15
2023-05-09T05:01:12.061Z,46.54
2023-05-09T05:03:39.598Z,46.79
2023-05-09T05:06:07.566Z,46.88
2023-05-09T05:08:35.230Z,46.66
2023-05-09T05:11:02.890Z,47.07
2023-05-09T05:13:30.454Z,47.04
2023-05-09T05:15:59.919Z,46.33
2023-05-09T05:18:27.112Z,46.65
2023-05-09T05:20:54.478Z,45.65
2023-05-09T05:23:21.626Z,45.18
2023-05-09T05:25:50.206Z,44.40
2023-05-09T05:28:17.461Z,44.93
2023-05-09T05:30:44.815Z,44.59
2023-05-09T05:33:11.916Z,44.71
2023-05-09T05:35:39.325Z,45.21
2023-05-09T05:38:06.476Z,44.11
2023-05-09T05:40:33.830Z,44.17
2023-05-09T05:43:03.038Z,43.83
2023-05-09T05:45:31.634Z,43.18
2023-05-09T05:47:59.530Z,43.24
2023-05-09T05:50:26.736Z,43.32
2023-05-09T05:52:54.501Z,43.17
2023-05-09T05:55:21.858Z,43.55
2023-05-09T05:57:49.038Z,44.01
2023-05-09T06:00:17.103Z,44.00
2023-05-09T06:02:46.509Z,43.77
2023-05-09T06:05:20.192Z,43.17
2023-05-09T06:07:47.647Z,42.60
2023-05-09T06:10:16.279Z,42.60
2023-05-09T06:12:45.616Z,42.65
2023-05-09T06:15:13.235Z,42.54
2023-05-09T06:17:43.257Z,42.98
2023-05-09T06:20:11.018Z,42.33
2023-05-09T06:22:38.747Z,42.06
2023-05-09T06:25:09.480Z,41.54
2023-05-09T06:27:38.122Z,41.31
2023-05-09T06:30:23.739Z,41.28
2023-05-09T06:32:53.669Z,39.87
2023-05-09T06:35:21.124Z,39.42
2023-05-09T06:37:48.979Z,40.15
2023-05-09T06:40:17.888Z,39.79
2023-05-09T06:42:45.535Z,39.66
2023-05-09T06:45:13.560Z,39.21
2023-05-09T06:47:41.030Z,39.56
2023-05-09T06:50:08.990Z,39.42
2023-05-09T06:52:36.306Z,38.60
2023-05-09T06:55:04.085Z,39.13
2023-05-09T06:57:31.542Z,37.71
2023-05-09T06:59:58.680Z,36.85
2023-05-09T07:02:26.268Z,36.83
2023-05-09T07:04:53.528Z,37.36
2023-05-09T07:07:20.684Z,37.32
2023-05-09T07:09:49.335Z,36.02
2023-05-09T07:12:20.073Z,35.69
2023-05-09T07:14:47.342Z,35.68
2023-05-09T07:17:22.706Z,35.35
2023-05-09T07:19:51.305Z,33.91
2023-05-09T07:22:18.565Z,33.70
2023-05-09T07:24:46.726Z,34.29
2023-05-09T07:27:14.278Z,34.67
2023-05-09T07:29:41.412Z,33.98
2023-05-09T07:32:09.234Z,33.20
2023-05-09T07:34:36.649Z,33.78
2023-05-09T07:37:03.994Z,32.99
2023-05-09T07:39:31.235Z,31.85
2023-05-09T07:41:58.397Z,31.64
2023-05-09T07:44:25.543Z,32.21
2023-05-09T07:46:52.687Z,32.03
2023-05-09T07:49:19.834Z,31.51
2023-05-09T07:51:46.990Z,31.13
2023-05-09T07:54:14.401Z,31.31
2023-05-09T07:56:41.497Z,31.17
2023-05-09T07:59:08.754Z,31.67
2023-05-09T08:01:35.905Z,31.90
2023-05-09T08:04:03.126Z,31.89
2023-05-09T08:06:30.517Z,31.81
2023-05-09T08:08:57.670Z,30.88
2023-05-09T08:11:24.822Z,28.47
2023-05-09T08:13:52.383Z,28.20
2023-05-09T08:16:19.789Z,28.15
2023-05-09T08:18:47.098Z,28.90
2023-05-09T08:21:14.286Z,29.12
2023-05-09T08:23:41.611Z,27.47
2023-05-09T08:26:08.757Z,29.12
2023-05-09T08:28:35.813Z,27.35
2023-05-09T08:31:03.059Z,28.47
2023-05-09T08:33:30.935Z,28.03
2023-05-09T08:35:58.134Z,27.10
2023-05-09T08:38:25.378Z,27.43
2023-05-09T08:40:52.500Z,28.02
2023-05-09T08:43:19.651Z,28.60
2023-05-09T08:45:48.664Z,28.71
2023-05-09T08:48:16.614Z,28.30
2023-05-09T08:50:44.380Z,28.60
2023-05-09T08:53:14.610Z,29.30
2023-05-09T08:55:41.773Z,28.60
2023-05-09T08:58:09.786Z,28.25
2023-05-09T09:00:38.523Z,27.60
2023-05-09T09:03:05.804Z,27.30
2023-05-09T09:05:41.230Z,26.90
2023-05-09T09:08:09.781Z,26.88
2023-05-09T09:10:36.963Z,25.97
2023-05-09T09:13:05.249Z,26.34
2023-05-09T09:15:37.085Z,25.99
2023-05-09T09:18:08.270Z,25.52
2023-05-09T09:20:37.663Z,25.33
2023-05-09T09:23:05.931Z,26.45
2023-05-09T09:25:33.080Z,25.45
2023-05-09T09:28:00.128Z,25.54
2023-05-09T09:30:27.797Z,24.64
2023-05-09T09:32:55.295Z,25.18
2023-05-09T09:35:22.511Z,25.06
2023-05-09T09:37:49.660Z,24.52
2023-05-09T09:42:59.329Z,24.19
2023-05-09T09:45:28.527Z,23.71
2023-05-09T09:47:55.787Z,23.54
2023-05-09T09:50:25.776Z,24.65
2023-05-09T09:52:53.670Z,24.56
2023-05-09T09:55:22.288Z,23.01
2023-05-09T09:57:49.616Z,23.18
2023-05-09T10:00:19.030Z,23.20
2023-05-09T10:02:53.722Z,23.75
2023-05-09T10:05:21.441Z,22.85
2023-05-09T10:07:59.522Z,23.62
2023-05-09T10:10:28.535Z,23.88
2023-05-09T10:12:57.997Z,24.54
2023-05-09T10:15:25.920Z,24.41
2023-05-09T10:18:01.329Z,24.09
2023-05-09T10:20:28.808Z,24.11
2023-05-09T10:23:01.452Z,24.86
2023-05-09T10:25:40.106Z,24.77
2023-05-09T10:28:16.200Z,24.61
2023-05-09T10:31:02.069Z,24.83
2023-05-09T10:33:38.120Z,24.55
2023-05-09T10:36:05.588Z,24.84
2023-05-09T10:38:32.739Z,24.48
2023-05-09T10:40:59.886Z,23.80
2023-05-09T10:43:27.554Z,23.46
2023-05-09T10:45:54.695Z,23.95
2023-05-09T10:48:21.769Z,23.80
2023-05-09T10:50:48.905Z,23.95
2023-05-09T10:53:18.101Z,24.48
2023-05-09T10:55:55.712Z,24.18
2023-05-09T10:58:25.212Z,24.51
2023-05-09T11:00:54.602Z,23.41
2023-05-09T11:03:23.768Z,23.14
2023-05-09T11:05:55.990Z,22.81
2023-05-09T11:08:25.421Z,23.68
2023-05-09T11:10:56.538Z,23.78
2023-05-09T11:13:31.002Z,23.24
2023-05-09T11:16:01.780Z,23.61
2023-05-09T11:18:29.564Z,23.93
2023-05-09T11:20:56.820Z,23.36
2023-05-09T11:23:27.872Z,23.44
2023-05-09T11:25:55.119Z,23.90
2023-05-09T11:28:31.902Z,23.76
2023-05-09T11:31:18.462Z,22.17
2023-05-09T11:33:47.497Z,22.31
2023-05-09T11:36:28.170Z,21.28
2023-05-09T11:39:06.630Z,20.94
2023-05-09T11:41:47.258Z,21.83
2023-05-09T11:44:18.912Z,21.93
2023-05-09T11:46:46.980Z,22.83
2023-05-09T11:49:14.245Z,23.59
2023-05-09T11:51:42.215Z,22.51
2023-05-09T11:54:10.806Z,22.12
2023-05-09T11:56:40.311Z,22.03
2023-05-09T11:59:07.977Z,21.21
2023-05-09T12:01:35.129Z,20.54
2023-05-09T12:04:02.578Z,20.10
2023-05-09T12:06:30.355Z,20.78
2023-05-09T12:08:58.115Z,20.20
2023-05-09T12:11:25.582Z,20.42
2023-05-09T12:13:53.245Z,21.17
2023-05-09T12:16:20.762Z,21.79
2023-05-09T12:18:49.503Z,22.14
2023-05-09T12:21:17.590Z,21.34
2023-05-09T12:23:45.703Z,20.85
2023-05-09T12:26:13.097Z,20.21
2023-05-09T12:28:40.261Z,19.68
2023-05-09T12:31:07.535Z,19.04
2023-05-09T12:33:35.172Z,18.78
2023-05-09T12:36:11.277Z,18.90
2023-05-09T12:38:39.133Z,19.02
2023-05-09T12:41:12.961Z,19.84
2023-05-09T12:43:49.797Z,21.18
2023-05-09T12:46:20.711Z,20.22
2023-05-09T12:48:48.829Z,20.62
2023-05-09T12:51:22.837Z,21.35
2023-05-09T12:53:50.038Z,22.28
2023-05-09T12:56:18.866Z,22.91
2023-05-09T12:58:55.652Z,23.10
2023-05-09T13:01:29.258Z,23.93
2023-05-09T13:04:03.978Z,24.43
2023-05-09T13:06:31.156Z,24.89
2023-05-09T13:09:02.553Z,23.91
2023-05-09T13:11:29.884Z,24.66
2023-05-09T13:13:57.611Z,24.89
2023-05-09T13:16:25.109Z,25.13
2023-05-09T13:18:52.320Z,24.61
2023-05-09T13:21:19.675Z,25.06
2023-05-09T13:23:46.830Z,24.81
2023-05-09T13:26:13.984Z,25.13
2023-05-09T13:28:41.461Z,24.82
2023-05-09T13:31:08.726Z,25.89
2023-05-09T13:33:35.953Z,26.35
2023-05-09T13:36:04.129Z,25.98
2023-05-09T13:38:32.423Z,25.48
2023-05-09T13:41:00.334Z,25.57
2023-05-09T13:43:27.633Z,25.24
2023-05-09T13:45:54.807Z,25.00
2023-05-09T13:48:22.046Z,24.94
2023-05-09T13:50:49.808Z,25.36
2023-05-09T13:53:16.966Z,26.23
2023-05-09T13:55:45.834Z,26.23
2023-05-09T13:58:13.112Z,27.12
2023-05-09T14:00:40.280Z,27.54
2023-05-09T14:03:07.491Z,26.49
2023-05-09T14:05:34.784Z,26.28
2023-05-09T14:08:01.922Z,26.89
2023-05-09T14:10:29.395Z,26.26
2023-05-09T14:12:57.262Z,26.25
2023-05-09T14:15:24.504Z,26.01
2023-05-09T14:17:51.743Z,26.16
2023-05-09T14:20:18.934Z,25.31
2023-05-09T14:22:46.896Z,25.17
2023-05-09T14:25:14.357Z,25.06
2023-05-09T14:27:41.499Z,26.13
2023-05-09T14:30:09.383Z,25.35
2023-05-09T14:32:37.557Z,25.58
2023-05-09T14:35:05.343Z,25.76
2023-05-09T14:37:33.187Z,25.86
2023-05-09T14:40:05.705Z,26.64
2023-05-09T14:42:33.410Z,25.59
2023-05-09T14:45:00.580Z,25.82
2023-05-09T14:47:27.877Z,25.90
2023-05-09T14:49:55.601Z,26.59
2023-05-09T14:52:22.755Z,26.45
2023-05-09T14:54:49.913Z,26.29
2023-05-09T14:57:17.669Z,26.16
2023-05-09T14:59:44.822Z,26.11
2023-05-09T15:02:12.190Z,25.54
2023-05-09T15:04:41.586Z,25.35
2023-05-09T15:07:09.255Z,24.60
2023-05-09T15:09:36.400Z,24.57
2023-05-09T15:12:03.659Z,24.26
2023-05-09T15:14:30.915Z,24.45
2023-05-09T15:17:01.553Z,24.46
2023-05-09T15:19:31.900Z,23.50
2023-05-09T15:22:00.095Z,23.05
2023-05-09T15:24:27.416Z,23.03
2023-05-09T15:26:54.561Z,22.76
2023-05-09T15:29:24.385Z,23.44
2023-05-09T15:31:52.238Z,23.71
2023-05-09T15:34:19.398Z,24.50
2023-05-09T15:36:46.555Z,25.14
2023-05-09T15:39:13.705Z,25.20
2023-05-09T15:41:40.852Z,25.42
2023-05-09T15:44:08.524Z,25.70
2023-05-09T15:46:35.995Z,26.17
2023-05-09T15:49:04.156Z,26.39
2023-05-09T15:51:32.130Z,26.58
2023-05-09T15:53:59.283Z,26.40
2023-05-09T15:56:26.436Z,26.73
2023-05-09T15:58:53.586Z,27.08
2023-05-09T16:01:21.607Z,27.14
2023-05-09T16:03:49.088Z,27.32
2023-05-09T16:06:16.680Z,27.51
2023-05-09T16:08:44.347Z,27.95
2023-05-09T16:11:13.041Z,28.16
2023-05-09T16:13:40.904Z,28.54
2023-05-09T16:16:07.952Z,28.41
2023-05-09T16:18:35.209Z,28.54
2023-05-09T16:21:02.768Z,28.95
2023-05-09T16:23:30.227Z,28.77
2023-05-09T16:25:57.376Z,28.54
2023-05-09T16:28:27.297Z,28.94
2023-05-09T16:30:54.447Z,29.23
2023-05-09T16:33:21.601Z,29.14
2023-05-09T16:35:48.751Z,29.67
2023-05-09T16:38:15.888Z,29.79
2023-05-09T16:40:43.056Z,29.55
2023-05-09T16:43:10.223Z,30.37
2023-05-09T16:45:37.374Z,30.41
2023-05-09T16:48:05.153Z,29.88
2023-05-09T16:50:32.275Z,30.12
2023-05-09T16:52:59.536Z,29.76
2023-05-09T16:55:26.998Z,29.97
2023-05-09T16:57:54.140Z,29.93
2023-05-09T17:00:23.940Z,30.43
2023-05-09T17:02:51.130Z,30.70
2023-05-09T17:05:18.560Z,30.68
2023-05-09T17:07:45.712Z,30.96
2023-05-09T17:10:12.869Z,31.20
2023-05-09T17:12:40.225Z,31.50
2023-05-09T17:15:08.033Z,31.86
2023-05-09T17:17:35.730Z,31.55
2023-05-09T17:20:04.748Z,32.00
2023-05-09T17:22:32.312Z,32.16
2023-05-09T17:24:59.375Z,32.20
2023-05-09T17:27:27.424Z,32.62
2023-05-09T17:29:54.579Z,32.59
2023-05-09T17:32:21.728Z,32.49
2023-05-09T17:34:48.893Z,32.23
2023-05-09T17:37:16.032Z,32.47
2023-05-09T17:39:44.211Z,32.53
2023-05-09T17:42:12.264Z,32.85
2023-05-09T17:44:41.018Z,32.76
2023-05-09T17:47:09.554Z,32.98
2023-05-09T17:49:36.705Z,33.03
2023-05-09T17:52:03.852Z,33.32
2023-05-09T17:54:31.105Z,33.21
2023-05-09T17:57:01.656Z,33.67
2023-05-09T17:59:29.195Z,33.59
2023-05-09T18:01:56.406Z,33.69
2023-05-09T18:04:23.596Z,33.83
2023-05-09T18:06:50.985Z,33.95
2023-05-09T18:09:18.923Z,34.05
2023-05-09T18:11:46.081Z,34.33
2023-05-09T18:14:13.341Z,34.73
2023-05-09T18:16:40.481Z,35.28
2023-05-09T18:19:07.662Z,35.67
2023-05-09T18:21:36.522Z,35.90
2023-05-09T18:24:04.390Z,35.73
2023-05-09T18:26:31.540Z,35.54
2023-05-09T18:28:58.692Z,35.54
2023-05-09T18:31:25.920Z,35.63
2023-05-09T18:33:53.091Z,35.32
2023-05-09T18:36:21.062Z,35.44
2023-05-09T18:38:48.625Z,35.65
2023-05-09T18:41:18.538Z,36.06
2023-05-09T18:43:46.327Z,36.26
2023-05-09T18:46:17.512Z,36.02
2023-05-09T18:48:45.645Z,36.04
2023-05-09T18:51:13.083Z,36.31
2023-05-09T18:53:40.744Z,36.19
2023-05-09T18:56:09.130Z,36.63
2023-05-09T18:58:36.887Z,37.33
2023-05-09T19:01:04.794Z,37.70
2023-05-09T19:03:32.313Z,37.38
2023-05-09T19:06:00.133Z,37.23
2023-05-09T19:08:27.641Z,37.39
2023-05-09T19:10:55.029Z,37.83
2023-05-09T19:13:22.235Z,38.03
2023-05-09T19:15:49.809Z,37.73
2023-05-09T19:18:16.968Z,37.93
2023-05-09T19:20:44.212Z,37.93
2023-05-09T19:23:12.281Z,37.93
2023-05-09T19:25:39.296Z,38.36
2023-05-09T19:28:06.712Z,39.21
2023-05-09T19:30:33.925Z,39.54
2023-05-09T19:33:01.128Z,39.62
2023-05-09T19:35:28.344Z,40.05
2023-05-09T19:37:55.499Z,39.82
2023-05-09T19:40:22.647Z,39.59
2023-05-09T19:42:50.726Z,39.83
2023-05-09T19:45:17.981Z,40.59
2023-05-09T19:47:45.136Z,40.96
2023-05-09T19:50:12.683Z,40.72
2023-05-09T19:52:40.420Z,40.67
2023-05-09T19:55:08.051Z,40.44
2023-05-09T19:57:35.236Z,39.82
2023-05-09T20:00:02.417Z,39.46
2023-05-09T20:02:33.513Z,39.77
2023-05-09T20:05:00.917Z,40.08
2023-05-09T20:07:28.170Z,39.88
2023-05-09T20:09:55.316Z,39.87
2023-05-09T20:12:22.320Z,40.33
2023-05-09T20:14:49.410Z,40.01
2023-05-09T20:17:16.471Z,39.91
2023-05-09T20:19:43.508Z,39.95
2023-05-09T20:22:10.870Z,39.89
2023-05-09T20:24:37.915Z,39.86
2023-05-09T20:27:04.967Z,40.14
2023-05-09T20:29:32.110Z,40.96
2023-05-09T20:31:59.302Z,41.75
2023-05-09T20:34:27.379Z,41.26
2023-05-09T20:36:55.159Z,41.03
2023-05-09T20:39:23.177Z,40.45
2023-05-09T20:41:50.800Z,40.27
2023-05-09T20:44:18.000Z,40.35
2023-05-09T20:46:45.747Z,40.31
2023-05-09T20:49:12.911Z,40.18
2023-05-09T20:51:40.168Z,40.17
2023-05-09T20:54:07.348Z,40.24
2023-05-09T20:56:35.684Z,40.32
2023-05-09T20:59:04.453Z,40.22
2023-05-09T21:01:32.657Z,40.36
2023-05-09T21:03:59.844Z,40.62
2023-05-09T21:06:26.955Z,40.97
2023-05-09T21:08:53.978Z,41.65
2023-05-09T21:11:22.203Z,41.69
2023-05-09T21:13:50.464Z,42.00
2023-05-09T21:16:17.603Z,42.56
2023-05-09T21:18:44.660Z,43.02
2023-05-09T21:21:11.923Z,43.17
2023-05-09T21:23:38.951Z,43.28
2023-05-09T21:26:05.981Z,43.43
2023-05-09T21:28:33.190Z,43.61
2023-05-09T21:31:01.906Z,43.33
2023-05-09T21:33:31.007Z,43.44
2023-05-09T21:35:59.393Z,43.55
2023-05-09T21:38:26.563Z,43.94
2023-05-09T21:40:53.617Z,43.85
2023-05-09T21:43:20.671Z,43.97
2023-05-09T21:45:47.806Z,44.42
2023-05-09T21:48:14.984Z,44.48
2023-05-09T21:50:46.160Z,44.95
2023-05-09T21:53:13.868Z,45.49
2023-05-09T21:55:41.236Z,45.66
2023-05-09T22:00:16.898Z,46.59
2023-05-09T22:02:44.619Z,46.49
2023-05-09T22:05:12.115Z,46.33
2023-05-09T22:07:39.513Z,46.36
2023-05-09T22:10:07.220Z,46.27
2023-05-09T22:12:34.384Z,46.39
2023-05-09T22:15:01.548Z,46.69
2023-05-09T22:17:28.930Z,47.10
2023-05-09T22:19:55.937Z,47.05
2023-05-09T22:22:23.293Z,47.09
2023-05-09T22:24:50.547Z,47.44
2023-05-09T22:27:17.594Z,48.31
2023-05-09T22:29:45.867Z,48.21
2023-05-09T22:32:14.360Z,48.14
2023-05-09T22:34:41.400Z,48.41
2023-05-09T22:37:09.063Z,48.56
2023-05-09T22:39:36.053Z,48.63
2023-05-09T22:42:04.286Z,48.57
2023-05-09T22:44:32.783Z,48.54
2023-05-09T22:47:00.030Z,48.34
2023-05-09T22:49:27.180Z,48.33
2023-05-09T22:51:54.537Z,48.47
2023-05-09T22:54:22.408Z,48.64
2023-05-09T22:56:49.933Z,49.10
2023-05-09T22:59:20.096Z,49.39
2023-05-09T23:01:47.383Z,49.71
2023-05-09T23:04:14.592Z,50.34
2023-05-09T23:06:41.745Z,50.55
2023-05-09T23:09:08.892Z,50.75
2023-05-09T23:11:36.048Z,50.76
2023-05-09T23:14:03.711Z,51.09
2023-05-09T23:16:30.863Z,51.36
2023-05-09T23:18:58.018Z,51.31
2023-05-09T23:21:25.169Z,51.48
2023-05-09T23:23:52.310Z,51.69
2023-05-09T23:26:19.360Z,51.93
2023-05-09T23:28:46.513Z,52.13
2023-05-09T23:31:13.715Z,52.33
2023-05-09T23:33:40.923Z,52.23
2023-05-09T23:36:09.292Z,52.06
2023-05-09T23:38:36.442Z,51.73
2023-05-09T23:41:03.614Z,51.45
2023-05-09T23:43:30.744Z,51.74
2023-05-09T23:45:57.903Z,51.54
2023-05-09T23:48:25.789Z,51.52
2023-05-09T23:50:52.911Z,51.52
2023-05-09T23:53:20.089Z,51.78
2023-05-09T23:55:47.216Z,51.71
2023-05-09T23:58:14.374Z,51.44
